sensor_id;sensor_type;location;lat;lon;timestamp;temperature;humidity
25504;DHT22;13410;52.114;5.718;2022-08-11T00:01:04;24.10;99.90
25504;DHT22;13410;52.114;5.718;2022-08-11T00:03:32;24.10;99.90
25504;DHT22;13410;52.114;5.718;2022-08-11T00:05:58;24.20;99.90
25504;DHT22;13410;52.114;5.718;2022-08-11T00:08:28;24.00;99.90
25504;DHT22;13410;52.114;5.718;2022-08-11T00:11:06;24.00;99.90
25504;DHT22;13410;52.114;5.718;2022-08-11T00:13:52;24.10;99.90
25504;DHT22;13410;52.114;5.718;2022-08-11T00:16:20;23.90;99.90
25504;DHT22;13410;52.114;5.718;2022-08-11T00:18:50;23.80;99.90
25504;DHT22;13410;52.114;5.718;2022-08-11T00:21:16;23.80;99.90
25504;DHT22;13410;52.114;5.718;2022-08-11T00:23:45;23.90;99.90
25504;DHT22;13410;52.114;5.718;2022-08-11T00:26:12;23.80;99.90
25504;DHT22;13410;52.114;5.718;2022-08-11T00:28:38;23.80;99.90
25504;DHT22;13410;52.114;5.718;2022-08-11T00:31:07;23.80;99.90
25504;DHT22;13410;52.114;5.718;2022-08-11T00:33:41;23.80;99.90
25504;DHT22;13410;52.114;5.718;2022-08-11T00:36:08;23.80;99.90
25504;DHT22;13410;52.114;5.718;2022-08-11T00:38:40;23.80;99.90
25504;DHT22;13410;52.114;5.718;2022-08-11T00:47:09;23.50;99.90
25504;DHT22;13410;52.114;5.718;2022-08-11T00:50:02;23.50;99.90
25504;DHT22;13410;52.114;5.718;2022-08-11T01:02:15;23.50;99.90
25504;DHT22;13410;52.114;5.718;2022-08-11T01:13:51;23.40;99.90
25504;DHT22;13410;52.114;5.718;2022-08-11T01:28:06;23.30;99.90
25504;DHT22;13410;52.114;5.718;2022-08-11T01:33:58;23.00;99.90
25504;DHT22;13410;52.114;5.718;2022-08-11T01:46:20;23.00;99.90
25504;DHT22;13410;52.114;5.718;2022-08-11T01:51:47;22.80;99.90
25504;DHT22;13410;52.114;5.718;2022-08-11T01:54:23;22.50;99.90
25504;DHT22;13410;52.114;5.718;2022-08-11T01:59:35;22.50;99.90
25504;DHT22;13410;52.114;5.718;2022-08-11T02:02:22;22.60;99.90
25504;DHT22;13410;52.114;5.718;2022-08-11T02:11:21;22.20;99.90
25504;DHT22;13410;52.114;5.718;2022-08-11T02:20:00;22.30;99.90
25504;DHT22;13410;52.114;5.718;2022-08-11T02:23:32;22.30;99.90
25504;DHT22;13410;52.114;5.718;2022-08-11T02:29:32;22.30;99.90
25504;DHT22;13410;52.114;5.718;2022-08-11T02:32:18;22.40;99.90
25504;DHT22;13410;52.114;5.718;2022-08-11T02:35:31;22.20;99.90
25504;DHT22;13410;52.114;5.718;2022-08-11T02:41:07;22.10;99.90
25504;DHT22;13410;52.114;5.718;2022-08-11T02:44:16;22.10;99.90
25504;DHT22;13410;52.114;5.718;2022-08-11T02:46:59;22.20;99.90
25504;DHT22;13410;52.114;5.718;2022-08-11T02:52:44;22.10;99.90
25504;DHT22;13410;52.114;5.718;2022-08-11T02:55:34;22.10;99.90
25504;DHT22;13410;52.114;5.718;2022-08-11T03:01:14;22.00;99.90
25504;DHT22;13410;52.114;5.718;2022-08-11T03:03:55;22.00;99.90
25504;DHT22;13410;52.114;5.718;2022-08-11T03:23:34;21.60;99.90
25504;DHT22;13410;52.114;5.718;2022-08-11T03:26:25;21.60;99.90
25504;DHT22;13410;52.114;5.718;2022-08-11T03:31:48;21.40;99.90
25504;DHT22;13410;52.114;5.718;2022-08-11T03:34:21;21.60;99.90
25504;DHT22;13410;52.114;5.718;2022-08-11T03:39:55;21.60;99.90
25504;DHT22;13410;52.114;5.718;2022-08-11T03:47:43;21.50;99.90
25504;DHT22;13410;52.114;5.718;2022-08-11T03:56:11;21.40;99.90
25504;DHT22;13410;52.114;5.718;2022-08-11T04:07:11;21.50;99.90
25504;DHT22;13410;52.114;5.718;2022-08-11T04:10:27;21.30;99.90
25504;DHT22;13410;52.114;5.718;2022-08-11T04:15:58;21.50;99.90
25504;DHT22;13410;52.114;5.718;2022-08-11T04:21:47;21.50;99.90
25504;DHT22;13410;52.114;5.718;2022-08-11T04:24:25;21.40;99.90
25504;DHT22;13410;52.114;5.718;2022-08-11T04:44:56;22.10;99.90
25504;DHT22;13410;52.114;5.718;2022-08-11T04:48:18;22.60;99.90
25504;DHT22;13410;52.114;5.718;2022-08-11T04:51:21;23.50;99.90
25504;DHT22;13410;52.114;5.718;2022-08-11T05:01:17;25.60;99.90
25504;DHT22;13410;52.114;5.718;2022-08-11T05:04:06;26.40;99.90
25504;DHT22;13410;52.114;5.718;2022-08-11T05:11:02;27.20;99.90
25504;DHT22;13410;52.114;5.718;2022-08-11T05:12:55;28.10;99.90
25504;DHT22;13410;52.114;5.718;2022-08-11T05:15:33;28.30;99.90
25504;DHT22;13410;52.114;5.718;2022-08-11T05:18:23;28.60;99.90
25504;DHT22;13410;52.114;5.718;2022-08-11T05:21:28;29.10;99.90
25504;DHT22;13410;52.114;5.718;2022-08-11T05:24:42;29.60;99.90
25504;DHT22;13410;52.114;5.718;2022-08-11T05:27:36;30.00;99.90
25504;DHT22;13410;52.114;5.718;2022-08-11T05:30:27;30.40;99.90
25504;DHT22;13410;52.114;5.718;2022-08-11T05:33:22;30.70;99.90
25504;DHT22;13410;52.114;5.718;2022-08-11T05:36:37;31.00;99.90
25504;DHT22;13410;52.114;5.718;2022-08-11T05:39:12;31.40;99.90
25504;DHT22;13410;52.114;5.718;2022-08-11T05:41:58;31.50;99.90
25504;DHT22;13410;52.114;5.718;2022-08-11T05:44:45;31.80;99.90
25504;DHT22;13410;52.114;5.718;2022-08-11T05:47:30;32.40;99.90
25504;DHT22;13410;52.114;5.718;2022-08-11T05:50:17;32.50;99.90
25504;DHT22;13410;52.114;5.718;2022-08-11T05:53:09;32.80;99.90
25504;DHT22;13410;52.114;5.718;2022-08-11T05:55:53;33.00;99.90
25504;DHT22;13410;52.114;5.718;2022-08-11T05:58:39;33.10;99.90
25504;DHT22;13410;52.114;5.718;2022-08-11T06:01:06;33.30;99.90
25504;DHT22;13410;52.114;5.718;2022-08-11T06:03:34;33.50;99.90
25504;DHT22;13410;52.114;5.718;2022-08-11T06:06:47;33.70;99.90
25504;DHT22;13410;52.114;5.718;2022-08-11T06:09:26;33.60;99.90
25504;DHT22;13410;52.114;5.718;2022-08-11T06:11:56;33.80;99.90
25504;DHT22;13410;52.114;5.718;2022-08-11T06:14:23;34.10;99.90
25504;DHT22;13410;52.114;5.718;2022-08-11T06:16:53;34.50;99.90
25504;DHT22;13410;52.114;5.718;2022-08-11T06:19:21;34.80;99.90
25504;DHT22;13410;52.114;5.718;2022-08-11T06:21:48;35.10;99.90
25504;DHT22;13410;52.114;5.718;2022-08-11T06:24:17;35.30;99.90
25504;DHT22;13410;52.114;5.718;2022-08-11T06:26:49;35.50;99.90
25504;DHT22;13410;52.114;5.718;2022-08-11T06:29:15;35.80;99.90
25504;DHT22;13410;52.114;5.718;2022-08-11T06:31:54;36.10;99.90
25504;DHT22;13410;52.114;5.718;2022-08-11T06:34:36;36.20;99.90
25504;DHT22;13410;52.114;5.718;2022-08-11T06:37:14;36.40;99.90
25504;DHT22;13410;52.114;5.718;2022-08-11T06:40:08;36.20;99.90
25504;DHT22;13410;52.114;5.718;2022-08-11T06:45:33;35.90;99.90
25504;DHT22;13410;52.114;5.718;2022-08-11T06:48:02;35.80;99.90
25504;DHT22;13410;52.114;5.718;2022-08-11T06:50:31;35.50;99.90
25504;DHT22;13410;52.114;5.718;2022-08-11T06:53:18;35.20;99.90
25504;DHT22;13410;52.114;5.718;2022-08-11T06:55:46;35.10;99.90
25504;DHT22;13410;52.114;5.718;2022-08-11T06:58:38;35.00;99.90
25504;DHT22;13410;52.114;5.718;2022-08-11T07:04:58;34.40;99.90
25504;DHT22;13410;52.114;5.718;2022-08-11T07:11:14;34.50;99.90
25504;DHT22;13410;52.114;5.718;2022-08-11T07:14:03;34.40;99.90
25504;DHT22;13410;52.114;5.718;2022-08-11T07:16:49;34.60;99.90
25504;DHT22;13410;52.114;5.718;2022-08-11T07:19:21;34.50;99.90
25504;DHT22;13410;52.114;5.718;2022-08-11T07:22:09;34.90;99.90
25504;DHT22;13410;52.114;5.718;2022-08-11T07:25:15;34.80;99.90
25504;DHT22;13410;52.114;5.718;2022-08-11T07:28:01;35.00;99.90
25504;DHT22;13410;52.114;5.718;2022-08-11T07:30:46;34.80;99.90
25504;DHT22;13410;52.114;5.718;2022-08-11T07:33:13;35.00;99.90
25504;DHT22;13410;52.114;5.718;2022-08-11T07:35:52;35.30;99.90
25504;DHT22;13410;52.114;5.718;2022-08-11T07:38:31;35.30;99.90
25504;DHT22;13410;52.114;5.718;2022-08-11T07:41:21;35.70;99.90
25504;DHT22;13410;52.114;5.718;2022-08-11T07:43:50;35.80;99.90
25504;DHT22;13410;52.114;5.718;2022-08-11T07:46:17;35.50;99.90
25504;DHT22;13410;52.114;5.718;2022-08-11T07:49:03;35.40;99.90
25504;DHT22;13410;52.114;5.718;2022-08-11T07:51:49;35.00;99.90
25504;DHT22;13410;52.114;5.718;2022-08-11T07:54:35;34.70;99.90
25504;DHT22;13410;52.114;5.718;2022-08-11T07:57:03;34.60;99.90
25504;DHT22;13410;52.114;5.718;2022-08-11T07:59:48;34.50;99.90
25504;DHT22;13410;52.114;5.718;2022-08-11T08:02:33;34.10;99.90
25504;DHT22;13410;52.114;5.718;2022-08-11T08:05:19;33.60;99.90
25504;DHT22;13410;52.114;5.718;2022-08-11T08:08:04;33.50;99.90
25504;DHT22;13410;52.114;5.718;2022-08-11T08:10:50;33.40;99.90
25504;DHT22;13410;52.114;5.718;2022-08-11T08:13:36;33.10;99.90
25504;DHT22;13410;52.114;5.718;2022-08-11T08:16:21;32.90;99.90
25504;DHT22;13410;52.114;5.718;2022-08-11T08:19:05;32.70;99.90
25504;DHT22;13410;52.114;5.718;2022-08-11T08:21:31;32.60;99.90
25504;DHT22;13410;52.114;5.718;2022-08-11T08:23:57;32.60;99.90
25504;DHT22;13410;52.114;5.718;2022-08-11T08:26:23;32.60;99.90
25504;DHT22;13410;52.114;5.718;2022-08-11T08:29:07;32.30;99.90
25504;DHT22;13410;52.114;5.718;2022-08-11T08:31:52;32.20;99.90
25504;DHT22;13410;52.114;5.718;2022-08-11T08:34:18;31.80;99.90
25504;DHT22;13410;52.114;5.718;2022-08-11T08:36:47;31.80;99.90
25504;DHT22;13410;52.114;5.718;2022-08-11T08:39:13;31.80;99.90
25504;DHT22;13410;52.114;5.718;2022-08-11T08:41:42;32.00;99.90
25504;DHT22;13410;52.114;5.718;2022-08-11T08:44:10;32.10;99.90
25504;DHT22;13410;52.114;5.718;2022-08-11T08:46:42;32.00;99.90
25504;DHT22;13410;52.114;5.718;2022-08-11T08:49:09;32.00;99.90
25504;DHT22;13410;52.114;5.718;2022-08-11T08:51:39;32.20;99.90
25504;DHT22;13410;52.114;5.718;2022-08-11T08:54:11;32.30;99.90
25504;DHT22;13410;52.114;5.718;2022-08-11T08:56:40;32.20;99.90
25504;DHT22;13410;52.114;5.718;2022-08-11T08:59:08;32.20;99.90
25504;DHT22;13410;52.114;5.718;2022-08-11T09:02:04;32.10;99.90
25504;DHT22;13410;52.114;5.718;2022-08-11T09:04:31;32.10;99.90
25504;DHT22;13410;52.114;5.718;2022-08-11T09:06:59;32.30;99.90
25504;DHT22;13410;52.114;5.718;2022-08-11T09:09:27;32.50;99.90
25504;DHT22;13410;52.114;5.718;2022-08-11T09:11:53;32.40;99.90
25504;DHT22;13410;52.114;5.718;2022-08-11T09:14:22;32.40;99.90
25504;DHT22;13410;52.114;5.718;2022-08-11T09:16:50;32.50;99.90
25504;DHT22;13410;52.114;5.718;2022-08-11T09:19:18;32.60;99.90
25504;DHT22;13410;52.114;5.718;2022-08-11T09:21:46;32.60;99.90
25504;DHT22;13410;52.114;5.718;2022-08-11T09:24:31;32.60;99.90
25504;DHT22;13410;52.114;5.718;2022-08-11T09:27:16;32.50;99.90
25504;DHT22;13410;52.114;5.718;2022-08-11T09:29:42;32.60;99.90
25504;DHT22;13410;52.114;5.718;2022-08-11T09:32:10;32.80;99.90
25504;DHT22;13410;52.114;5.718;2022-08-11T09:34:39;32.80;99.90
25504;DHT22;13410;52.114;5.718;2022-08-11T09:37:05;32.80;99.90
25504;DHT22;13410;52.114;5.718;2022-08-11T09:39:53;32.70;99.90
25504;DHT22;13410;52.114;5.718;2022-08-11T09:42:39;32.70;99.30
25504;DHT22;13410;52.114;5.718;2022-08-11T09:45:24;32.70;99.50
25504;DHT22;13410;52.114;5.718;2022-08-11T09:47:50;32.60;99.00
25504;DHT22;13410;52.114;5.718;2022-08-11T09:50:16;32.20;99.10
25504;DHT22;13410;52.114;5.718;2022-08-11T09:52:44;32.20;99.50
25504;DHT22;13410;52.114;5.718;2022-08-11T09:55:13;32.30;99.70
25504;DHT22;13410;52.114;5.718;2022-08-11T09:57:43;32.30;98.80
25504;DHT22;13410;52.114;5.718;2022-08-11T10:00:37;32.10;98.70
25504;DHT22;13410;52.114;5.718;2022-08-11T10:03:24;32.10;99.20
25504;DHT22;13410;52.114;5.718;2022-08-11T10:05:54;32.10;99.00
25504;DHT22;13410;52.114;5.718;2022-08-11T10:08:41;32.20;97.50
25504;DHT22;13410;52.114;5.718;2022-08-11T10:11:14;32.10;98.80
25504;DHT22;13410;52.114;5.718;2022-08-11T10:13:44;32.10;99.40
25504;DHT22;13410;52.114;5.718;2022-08-11T10:16:31;32.40;98.80
25504;DHT22;13410;52.114;5.718;2022-08-11T10:19:00;32.70;98.00
25504;DHT22;13410;52.114;5.718;2022-08-11T10:21:36;32.90;98.00
25504;DHT22;13410;52.114;5.718;2022-08-11T10:24:04;32.60;98.40
25504;DHT22;13410;52.114;5.718;2022-08-11T10:26:50;32.60;98.50
25504;DHT22;13410;52.114;5.718;2022-08-11T10:29:23;32.70;99.20
25504;DHT22;13410;52.114;5.718;2022-08-11T10:32:09;32.50;98.70
25504;DHT22;13410;52.114;5.718;2022-08-11T10:34:54;32.70;99.20
25504;DHT22;13410;52.114;5.718;2022-08-11T10:37:22;32.90;98.20
25504;DHT22;13410;52.114;5.718;2022-08-11T10:39:49;32.90;98.00
25504;DHT22;13410;52.114;5.718;2022-08-11T10:42:16;33.00;98.40
25504;DHT22;13410;52.114;5.718;2022-08-11T10:45:03;33.00;98.80
25504;DHT22;13410;52.114;5.718;2022-08-11T10:47:50;32.90;98.40
25504;DHT22;13410;52.114;5.718;2022-08-11T10:50:16;33.10;98.70
25504;DHT22;13410;52.114;5.718;2022-08-11T10:53:01;33.10;98.50
25504;DHT22;13410;52.114;5.718;2022-08-11T10:55:45;32.90;98.90
25504;DHT22;13410;52.114;5.718;2022-08-11T10:58:31;32.70;98.30
25504;DHT22;13410;52.114;5.718;2022-08-11T11:01:22;32.80;98.30
25504;DHT22;13410;52.114;5.718;2022-08-11T11:03:54;33.10;97.90
25504;DHT22;13410;52.114;5.718;2022-08-11T11:09:48;33.50;98.20
25504;DHT22;13410;52.114;5.718;2022-08-11T11:12:24;33.40;98.80
25504;DHT22;13410;52.114;5.718;2022-08-11T11:15:12;33.40;98.30
25504;DHT22;13410;52.114;5.718;2022-08-11T11:18:07;33.40;98.50
25504;DHT22;13410;52.114;5.718;2022-08-11T11:20:44;33.30;98.20
25504;DHT22;13410;52.114;5.718;2022-08-11T11:26:24;33.50;98.50
25504;DHT22;13410;52.114;5.718;2022-08-11T11:29:17;33.40;98.20
25504;DHT22;13410;52.114;5.718;2022-08-11T11:31:58;33.50;97.70
25504;DHT22;13410;52.114;5.718;2022-08-11T11:35:15;33.50;97.10
25504;DHT22;13410;52.114;5.718;2022-08-11T11:37:44;33.40;97.50
25504;DHT22;13410;52.114;5.718;2022-08-11T11:40:13;33.80;97.00
25504;DHT22;13410;52.114;5.718;2022-08-11T11:42:42;34.10;97.40
25504;DHT22;13410;52.114;5.718;2022-08-11T11:45:09;34.10;97.30
25504;DHT22;13410;52.114;5.718;2022-08-11T11:47:37;34.30;97.50
25504;DHT22;13410;52.114;5.718;2022-08-11T11:50:04;34.50;97.40
25504;DHT22;13410;52.114;5.718;2022-08-11T11:52:31;34.40;97.50
25504;DHT22;13410;52.114;5.718;2022-08-11T11:54:57;34.30;97.10
25504;DHT22;13410;52.114;5.718;2022-08-11T11:57:24;34.30;97.30
25504;DHT22;13410;52.114;5.718;2022-08-11T12:00:11;34.10;97.10
25504;DHT22;13410;52.114;5.718;2022-08-11T12:02:58;34.10;97.30
25504;DHT22;13410;52.114;5.718;2022-08-11T12:05:25;34.20;97.30
25504;DHT22;13410;52.114;5.718;2022-08-11T12:07:52;34.40;96.70
25504;DHT22;13410;52.114;5.718;2022-08-11T12:10:38;34.40;96.60
25504;DHT22;13410;52.114;5.718;2022-08-11T12:13:05;34.60;96.80
25504;DHT22;13410;52.114;5.718;2022-08-11T12:16:01;34.70;96.30
25504;DHT22;13410;52.114;5.718;2022-08-11T12:18:31;34.60;96.10
25504;DHT22;13410;52.114;5.718;2022-08-11T12:20:59;34.70;96.00
25504;DHT22;13410;52.114;5.718;2022-08-11T12:23:25;34.60;95.90
25504;DHT22;13410;52.114;5.718;2022-08-11T12:26:13;34.50;96.30
25504;DHT22;13410;52.114;5.718;2022-08-11T12:28:59;34.50;95.00
25504;DHT22;13410;52.114;5.718;2022-08-11T12:31:28;34.40;94.90
25504;DHT22;13410;52.114;5.718;2022-08-11T12:34:05;34.70;95.10
25504;DHT22;13410;52.114;5.718;2022-08-11T12:36:39;34.70;95.50
25504;DHT22;13410;52.114;5.718;2022-08-11T12:39:08;34.70;96.10
25504;DHT22;13410;52.114;5.718;2022-08-11T12:41:36;34.70;95.50
25504;DHT22;13410;52.114;5.718;2022-08-11T12:44:24;34.80;96.40
25504;DHT22;13410;52.114;5.718;2022-08-11T12:47:11;34.80;95.40
25504;DHT22;13410;52.114;5.718;2022-08-11T12:49:50;34.90;95.20
25504;DHT22;13410;52.114;5.718;2022-08-11T12:52:44;34.60;94.70
25504;DHT22;13410;52.114;5.718;2022-08-11T12:55:16;34.40;94.80
25504;DHT22;13410;52.114;5.718;2022-08-11T12:58:09;34.40;94.90
25504;DHT22;13410;52.114;5.718;2022-08-11T13:00:42;34.70;94.70
25504;DHT22;13410;52.114;5.718;2022-08-11T13:03:27;34.50;94.20
25504;DHT22;13410;52.114;5.718;2022-08-11T13:06:12;34.80;94.40
25504;DHT22;13410;52.114;5.718;2022-08-11T13:08:39;34.80;94.30
25504;DHT22;13410;52.114;5.718;2022-08-11T13:11:06;34.70;94.40
25504;DHT22;13410;52.114;5.718;2022-08-11T13:13:51;34.90;95.00
25504;DHT22;13410;52.114;5.718;2022-08-11T13:16:22;34.90;94.80
25504;DHT22;13410;52.114;5.718;2022-08-11T13:18:49;35.00;94.90
25504;DHT22;13410;52.114;5.718;2022-08-11T13:21:15;34.80;95.10
25504;DHT22;13410;52.114;5.718;2022-08-11T13:23:44;34.80;95.10
25504;DHT22;13410;52.114;5.718;2022-08-11T13:26:14;34.80;95.00
25504;DHT22;13410;52.114;5.718;2022-08-11T13:28:40;35.00;94.70
25504;DHT22;13410;52.114;5.718;2022-08-11T13:31:06;35.20;94.70
25504;DHT22;13410;52.114;5.718;2022-08-11T13:33:49;35.10;94.60
25504;DHT22;13410;52.114;5.718;2022-08-11T13:36:20;35.00;94.80
25504;DHT22;13410;52.114;5.718;2022-08-11T13:38:47;35.10;94.80
25504;DHT22;13410;52.114;5.718;2022-08-11T13:41:13;35.20;94.60
25504;DHT22;13410;52.114;5.718;2022-08-11T13:43:59;35.30;94.50
25504;DHT22;13410;52.114;5.718;2022-08-11T13:46:28;35.20;94.00
25504;DHT22;13410;52.114;5.718;2022-08-11T13:48:56;35.00;94.10
25504;DHT22;13410;52.114;5.718;2022-08-11T13:51:23;35.10;94.10
25504;DHT22;13410;52.114;5.718;2022-08-11T13:54:06;35.20;94.20
25504;DHT22;13410;52.114;5.718;2022-08-11T13:56:36;35.00;93.20
25504;DHT22;13410;52.114;5.718;2022-08-11T13:59:04;34.80;93.40
25504;DHT22;13410;52.114;5.718;2022-08-11T14:01:38;35.00;93.60
25504;DHT22;13410;52.114;5.718;2022-08-11T14:04:11;35.10;93.10
25504;DHT22;13410;52.114;5.718;2022-08-11T14:06:40;35.20;93.50
25504;DHT22;13410;52.114;5.718;2022-08-11T14:09:09;35.20;93.50
25504;DHT22;13410;52.114;5.718;2022-08-11T14:11:36;35.10;93.10
25504;DHT22;13410;52.114;5.718;2022-08-11T14:14:25;35.30;93.20
25504;DHT22;13410;52.114;5.718;2022-08-11T14:16:53;35.50;93.50
25504;DHT22;13410;52.114;5.718;2022-08-11T14:19:24;35.80;92.90
25504;DHT22;13410;52.114;5.718;2022-08-11T14:21:51;35.80;93.10
25504;DHT22;13410;52.114;5.718;2022-08-11T14:24:38;35.80;93.30
25504;DHT22;13410;52.114;5.718;2022-08-11T14:27:06;35.50;93.20
25504;DHT22;13410;52.114;5.718;2022-08-11T14:29:33;35.20;92.90
25504;DHT22;13410;52.114;5.718;2022-08-11T14:32:07;34.90;93.10
25504;DHT22;13410;52.114;5.718;2022-08-11T14:34:34;34.60;93.10
25504;DHT22;13410;52.114;5.718;2022-08-11T14:37:04;34.60;93.30
25504;DHT22;13410;52.114;5.718;2022-08-11T14:39:33;34.80;93.50
25504;DHT22;13410;52.114;5.718;2022-08-11T14:42:04;34.80;92.90
25504;DHT22;13410;52.114;5.718;2022-08-11T14:44:56;34.80;93.10
25504;DHT22;13410;52.114;5.718;2022-08-11T14:47:43;35.10;92.90
25504;DHT22;13410;52.114;5.718;2022-08-11T14:50:12;35.00;92.60
25504;DHT22;13410;52.114;5.718;2022-08-11T14:52:54;34.90;92.60
25504;DHT22;13410;52.114;5.718;2022-08-11T14:55:23;34.80;93.40
25504;DHT22;13410;52.114;5.718;2022-08-11T14:58:09;35.00;93.50
25504;DHT22;13410;52.114;5.718;2022-08-11T15:00:36;34.60;93.60
25504;DHT22;13410;52.114;5.718;2022-08-11T15:03:03;34.80;93.90
25504;DHT22;13410;52.114;5.718;2022-08-11T15:05:37;34.90;94.00
25504;DHT22;13410;52.114;5.718;2022-08-11T15:08:04;34.90;93.60
25504;DHT22;13410;52.114;5.718;2022-08-11T15:10:31;34.80;93.00
25504;DHT22;13410;52.114;5.718;2022-08-11T15:12:57;34.60;93.40
25504;DHT22;13410;52.114;5.718;2022-08-11T15:15:24;34.60;93.50
25504;DHT22;13410;52.114;5.718;2022-08-11T15:18:11;34.70;93.70
25504;DHT22;13410;52.114;5.718;2022-08-11T15:20:39;34.80;93.40
25504;DHT22;13410;52.114;5.718;2022-08-11T15:23:23;34.60;93.40
25504;DHT22;13410;52.114;5.718;2022-08-11T15:26:17;34.60;93.60
25504;DHT22;13410;52.114;5.718;2022-08-11T15:28:46;35.00;93.50
25504;DHT22;13410;52.114;5.718;2022-08-11T15:31:31;34.80;92.90
25504;DHT22;13410;52.114;5.718;2022-08-11T15:34:13;34.60;93.20
25504;DHT22;13410;52.114;5.718;2022-08-11T15:37:14;34.80;93.60
25504;DHT22;13410;52.114;5.718;2022-08-11T15:39:57;34.70;93.50
25504;DHT22;13410;52.114;5.718;2022-08-11T15:45:40;34.80;93.30
25504;DHT22;13410;52.114;5.718;2022-08-11T15:48:17;34.90;93.50
25504;DHT22;13410;52.114;5.718;2022-08-11T15:50:49;35.10;93.60
25504;DHT22;13410;52.114;5.718;2022-08-11T15:53:27;34.80;93.30
25504;DHT22;13410;52.114;5.718;2022-08-11T15:55:55;34.80;93.60
25504;DHT22;13410;52.114;5.718;2022-08-11T15:58:25;34.80;93.60
25504;DHT22;13410;52.114;5.718;2022-08-11T16:01:13;34.80;93.90
25504;DHT22;13410;52.114;5.718;2022-08-11T16:04:06;34.80;93.90
25504;DHT22;13410;52.114;5.718;2022-08-11T16:06:58;34.60;93.70
25504;DHT22;13410;52.114;5.718;2022-08-11T16:09:38;34.60;93.90
25504;DHT22;13410;52.114;5.718;2022-08-11T16:12:08;34.60;94.10
25504;DHT22;13410;52.114;5.718;2022-08-11T16:14:38;34.70;94.40
25504;DHT22;13410;52.114;5.718;2022-08-11T16:17:25;34.50;94.10
25504;DHT22;13410;52.114;5.718;2022-08-11T16:19:53;34.60;94.10
25504;DHT22;13410;52.114;5.718;2022-08-11T16:22:26;34.60;94.40
25504;DHT22;13410;52.114;5.718;2022-08-11T16:25:00;34.50;93.90
25504;DHT22;13410;52.114;5.718;2022-08-11T16:27:28;34.60;94.00
25504;DHT22;13410;52.114;5.718;2022-08-11T16:29:58;34.50;94.00
25504;DHT22;13410;52.114;5.718;2022-08-11T16:32:24;34.30;94.20
25504;DHT22;13410;52.114;5.718;2022-08-11T16:34:57;34.20;94.30
25504;DHT22;13410;52.114;5.718;2022-08-11T16:37:42;34.30;94.40
25504;DHT22;13410;52.114;5.718;2022-08-11T16:40:29;34.40;94.50
25504;DHT22;13410;52.114;5.718;2022-08-11T16:42:57;34.30;94.60
25504;DHT22;13410;52.114;5.718;2022-08-11T16:45:45;34.30;94.30
25504;DHT22;13410;52.114;5.718;2022-08-11T16:48:33;34.10;94.50
25504;DHT22;13410;52.114;5.718;2022-08-11T16:51:00;34.10;94.30
25504;DHT22;13410;52.114;5.718;2022-08-11T16:53:27;34.00;94.00
25504;DHT22;13410;52.114;5.718;2022-08-11T16:55:55;33.90;94.00
25504;DHT22;13410;52.114;5.718;2022-08-11T16:58:23;34.00;94.10
25504;DHT22;13410;52.114;5.718;2022-08-11T17:01:08;34.00;94.40
25504;DHT22;13410;52.114;5.718;2022-08-11T17:03:40;34.10;94.40
25504;DHT22;13410;52.114;5.718;2022-08-11T17:06:26;34.00;94.30
25504;DHT22;13410;52.114;5.718;2022-08-11T17:09:10;34.10;94.20
25504;DHT22;13410;52.114;5.718;2022-08-11T17:11:57;34.20;94.30
25504;DHT22;13410;52.114;5.718;2022-08-11T17:14:51;34.10;93.80
25504;DHT22;13410;52.114;5.718;2022-08-11T17:17:22;33.80;93.80
25504;DHT22;13410;52.114;5.718;2022-08-11T17:19:53;33.70;93.90
25504;DHT22;13410;52.114;5.718;2022-08-11T17:22:20;33.50;94.10
25504;DHT22;13410;52.114;5.718;2022-08-11T17:25:07;33.50;94.10
25504;DHT22;13410;52.114;5.718;2022-08-11T17:27:34;33.20;93.60
25504;DHT22;13410;52.114;5.718;2022-08-11T17:30:04;33.40;93.90
25504;DHT22;13410;52.114;5.718;2022-08-11T17:32:32;33.60;93.70
25504;DHT22;13410;52.114;5.718;2022-08-11T17:35:20;33.50;93.80
25504;DHT22;13410;52.114;5.718;2022-08-11T17:38:09;33.60;94.10
25504;DHT22;13410;52.114;5.718;2022-08-11T17:40:40;33.60;93.70
25504;DHT22;13410;52.114;5.718;2022-08-11T17:43:28;33.50;93.80
25504;DHT22;13410;52.114;5.718;2022-08-11T17:46:14;33.50;94.20
25504;DHT22;13410;52.114;5.718;2022-08-11T17:48:58;33.50;94.00
25504;DHT22;13410;52.114;5.718;2022-08-11T17:51:24;33.60;94.00
25504;DHT22;13410;52.114;5.718;2022-08-11T17:54:09;33.50;93.90
25504;DHT22;13410;52.114;5.718;2022-08-11T17:56:54;33.30;93.90
25504;DHT22;13410;52.114;5.718;2022-08-11T17:59:39;33.30;93.90
25504;DHT22;13410;52.114;5.718;2022-08-11T18:05:05;33.10;94.30
25504;DHT22;13410;52.114;5.718;2022-08-11T18:07:32;33.10;94.20
25504;DHT22;13410;52.114;5.718;2022-08-11T18:10:16;33.00;94.50
25504;DHT22;13410;52.114;5.718;2022-08-11T18:13:01;32.90;94.50
25504;DHT22;13410;52.114;5.718;2022-08-11T18:15:47;32.90;94.80
25504;DHT22;13410;52.114;5.718;2022-08-11T18:18:31;32.70;94.90
25504;DHT22;13410;52.114;5.718;2022-08-11T18:21:17;32.70;94.90
25504;DHT22;13410;52.114;5.718;2022-08-11T18:24:06;32.70;95.00
25504;DHT22;13410;52.114;5.718;2022-08-11T18:26:52;32.70;95.00
25504;DHT22;13410;52.114;5.718;2022-08-11T18:29:39;32.60;95.10
25504;DHT22;13410;52.114;5.718;2022-08-11T18:32:26;32.40;95.00
25504;DHT22;13410;52.114;5.718;2022-08-11T18:35:11;32.40;95.20
25504;DHT22;13410;52.114;5.718;2022-08-11T18:37:57;32.30;95.20
25504;DHT22;13410;52.114;5.718;2022-08-11T18:40:44;32.40;95.20
25504;DHT22;13410;52.114;5.718;2022-08-11T18:43:31;32.20;95.20
25504;DHT22;13410;52.114;5.718;2022-08-11T18:46:18;32.20;95.40
25504;DHT22;13410;52.114;5.718;2022-08-11T18:49:12;32.10;95.40
25504;DHT22;13410;52.114;5.718;2022-08-11T18:51:58;32.10;95.50
25504;DHT22;13410;52.114;5.718;2022-08-11T18:54:44;31.80;95.50
25504;DHT22;13410;52.114;5.718;2022-08-11T18:57:29;31.80;95.60
25504;DHT22;13410;52.114;5.718;2022-08-11T19:00:14;31.80;95.60
25504;DHT22;13410;52.114;5.718;2022-08-11T19:03:00;31.80;95.70
25504;DHT22;13410;52.114;5.718;2022-08-11T19:05:45;31.90;95.80
25504;DHT22;13410;52.114;5.718;2022-08-11T19:08:34;31.60;95.80
25504;DHT22;13410;52.114;5.718;2022-08-11T19:11:20;31.50;95.90
25504;DHT22;13410;52.114;5.718;2022-08-11T19:14:05;31.50;96.00
25504;DHT22;13410;52.114;5.718;2022-08-11T19:16:50;31.30;96.00
25504;DHT22;13410;52.114;5.718;2022-08-11T19:19:36;31.20;96.00
25504;DHT22;13410;52.114;5.718;2022-08-11T19:22:22;31.00;96.10
25504;DHT22;13410;52.114;5.718;2022-08-11T19:25:08;30.80;96.30
25504;DHT22;13410;52.114;5.718;2022-08-11T19:27:53;30.90;96.40
25504;DHT22;13410;52.114;5.718;2022-08-11T19:30:39;30.90;96.40
25504;DHT22;13410;52.114;5.718;2022-08-11T19:33:25;30.80;96.70
25504;DHT22;13410;52.114;5.718;2022-08-11T19:36:10;30.60;96.50
25504;DHT22;13410;52.114;5.718;2022-08-11T19:38:55;30.60;96.60